Time;durP1;ratioP1;P1;durP2;ratioP2;P2;SDS_P1;SDS_P2;PMS_P1;PMS_P2;Temp;Humidity;BMP_temperature;BMP_pressure;BME280_temperature;BME280_humidity;BME280_pressure;Samples;Min_cycle;Max_cycle;Signal;HPM_P1;HPM_P2
2023/12/08 00:01:48;;;;;;;5.88;4.82;;;1.20;99.90;;;;;;5015780;28;20452;-72
2023/12/08 00:04:14;;;;;;;13.05;6.30;;;1.20;99.90;;;;;;5040991;28;20049;-72
2023/12/08 00:06:39;;;;;;;7.22;5.50;;;1.20;99.90;;;;;;5012793;28;20090;-72
2023/12/08 00:09:05;;;;;;;10.50;5.70;;;1.20;99.90;;;;;;5020721;28;20093;-72
2023/12/08 00:11:31;;;;;;;6.53;5.85;;;1.30;99.90;;;;;;5024254;28;20445;-73
2023/12/08 00:13:57;;;;;;;5.88;5.38;;;1.20;99.90;;;;;;5040886;28;20052;-72
2023/12/08 00:16:22;;;;;;;10.73;6.78;;;1.20;99.90;;;;;;5017570;28;20050;-72
2023/12/08 00:18:48;;;;;;;3.70;3.47;;;1.20;99.90;;;;;;5021548;28;20072;-72
2023/12/08 00:21:13;;;;;;;6.45;4.03;;;1.20;99.90;;;;;;5020322;28;20057;-72
2023/12/08 00:23:39;;;;;;;4.97;4.55;;;1.20;99.90;;;;;;5025644;28;20506;-72
2023/12/08 00:26:05;;;;;;;7.60;4.50;;;1.20;99.90;;;;;;5031395;28;20053;-72
2023/12/08 00:28:30;;;;;;;12.38;5.97;;;1.20;99.90;;;;;;5022838;28;20172;-72
2023/12/08 00:30:56;;;;;;;9.23;5.68;;;1.20;99.90;;;;;;5024503;28;20119;-72
2023/12/08 00:33:22;;;;;;;4.03;3.65;;;1.20;99.90;;;;;;5012114;28;20050;-72
2023/12/08 00:35:50;;;;;;;5.32;3.45;;;1.10;99.90;;;;;;5019624;28;20061;-72
2023/12/08 00:38:17;;;;;;;6.15;4.15;;;1.10;99.90;;;;;;5019850;28;20144;-72
2023/12/08 00:40:43;;;;;;;9.20;5.75;;;1.10;99.90;;;;;;5012033;28;20539;-73
2023/12/08 00:43:08;;;;;;;8.82;7.35;;;1.10;99.90;;;;;;5026076;28;20058;-72
2023/12/08 00:45:34;;;;;;;3.92;3.58;;;1.10;99.90;;;;;;5026977;28;20833;-72
2023/12/08 00:47:59;;;;;;;10.48;6.55;;;1.10;99.90;;;;;;5017614;28;20042;-72
2023/12/08 00:50:25;;;;;;;8.18;5.13;;;1.10;99.90;;;;;;5016960;28;20060;-72
2023/12/08 00:52:51;;;;;;;7.13;6.43;;;1.10;99.90;;;;;;5026791;28;20093;-71
2023/12/08 00:55:17;;;;;;;7.28;5.05;;;1.10;99.90;;;;;;5014221;28;20487;-72
2023/12/08 00:57:42;;;;;;;5.35;4.82;;;1.10;99.90;;;;;;5023677;28;20175;-72
2023/12/08 01:00:08;;;;;;;11.13;6.63;;;1.10;99.90;;;;;;5043904;28;20541;-72
2023/12/08 01:02:34;;;;;;;6.22;5.38;;;1.10;99.90;;;;;;5020440;28;20061;-72
2023/12/08 01:05:00;;;;;;;7.60;5.07;;;1.10;99.90;;;;;;5010036;28;20052;-72
2023/12/08 01:07:25;;;;;;;5.15;3.60;;;1.10;99.90;;;;;;5018116;28;20045;-72
2023/12/08 01:09:51;;;;;;;6.32;4.57;;;1.10;99.90;;;;;;5012893;28;20529;-71
2023/12/08 01:12:16;;;;;;;9.98;7.40;;;1.10;99.90;;;;;;5034143;28;20120;-71
2023/12/08 01:14:42;;;;;;;6.47;5.90;;;1.10;99.90;;;;;;5033615;28;20041;-72
2023/12/08 01:17:07;;;;;;;6.30;5.18;;;1.10;99.90;;;;;;5011851;28;20483;-72
2023/12/08 01:19:33;;;;;;;13.68;5.78;;;1.10;99.90;;;;;;5038922;28;20064;-72
2023/12/08 01:21:59;;;;;;;8.35;5.63;;;1.10;99.90;;;;;;5013795;28;20073;-72
2023/12/08 01:24:24;;;;;;;8.70;7.05;;;1.10;99.90;;;;;;5023559;28;20066;-71
2023/12/08 01:26:50;;;;;;;11.13;6.85;;;1.10;99.90;;;;;;5013100;28;20060;-72
2023/12/08 01:29:16;;;;;;;8.95;5.38;;;1.10;99.90;;;;;;5020210;28;20037;-71
2023/12/08 01:31:42;;;;;;;9.82;8.00;;;1.10;99.90;;;;;;5018505;28;20072;-72
2023/12/08 01:34:08;;;;;;;5.60;4.93;;;1.10;99.90;;;;;;5018999;28;20057;-72
2023/12/08 01:36:33;;;;;;;10.73;6.95;;;1.10;99.90;;;;;;5012418;28;20053;-72
2023/12/08 01:38:59;;;;;;;7.55;5.47;;;1.20;99.90;;;;;;5023478;28;20049;-71
2023/12/08 01:41:25;;;;;;;9.27;6.70;;;1.10;99.90;;;;;;5024826;28;20053;-72
2023/12/08 01:43:50;;;;;;;5.28;4.78;;;1.10;99.90;;;;;;5021197;28;20046;-72
2023/12/08 01:46:19;;;;;;;8.00;6.07;;;1.10;99.90;;;;;;5017185;28;20038;-72
2023/12/08 01:48:45;;;;;;;9.50;6.15;;;1.10;99.90;;;;;;5012735;28;20426;-72
2023/12/08 01:51:13;;;;;;;8.60;5.75;;;1.10;99.90;;;;;;5020852;28;20670;-72
2023/12/08 01:53:43;;;;;;;8.47;6.13;;;1.20;99.90;;;;;;5026131;28;20553;-72
2023/12/08 01:56:11;;;;;;;10.02;5.68;;;1.10;99.90;;;;;;5040084;28;20072;-72
2023/12/08 01:58:37;;;;;;;17.13;6.85;;;1.10;99.90;;;;;;5018391;28;20045;-72
2023/12/08 02:01:04;;;;;;;11.80;5.78;;;1.10;99.90;;;;;;5016873;28;20045;-72
2023/12/08 02:03:33;;;;;;;8.90;5.80;;;1.10;99.90;;;;;;5010987;28;20050;-71
2023/12/08 02:06:00;;;;;;;12.77;6.55;;;1.10;99.90;;;;;;5009900;28;20061;-72
2023/12/08 02:08:26;;;;;;;15.77;7.53;;;1.10;99.90;;;;;;5022339;28;20157;-71
2023/12/08 02:10:52;;;;;;;18.77;5.57;;;1.10;99.90;;;;;;5013281;28;20042;-72
2023/12/08 02:13:18;;;;;;;11.05;4.55;;;1.10;99.90;;;;;;5043180;28;20401;-72
2023/12/08 02:15:46;;;;;;;5.75;4.35;;;1.10;99.90;;;;;;5035774;28;20091;-71
2023/12/08 02:18:13;;;;;;;5.45;4.95;;;1.10;99.90;;;;;;5031347;28;20538;-72
2023/12/08 02:20:41;;;;;;;5.80;5.40;;;1.10;99.90;;;;;;5020794;28;20037;-72
2023/12/08 02:23:06;;;;;;;11.00;5.80;;;1.10;99.90;;;;;;5016156;28;20405;-72
2023/12/08 02:25:34;;;;;;;15.07;8.85;;;1.10;99.90;;;;;;5013416;28;20050;-72
2023/12/08 02:28:04;;;;;;;7.00;5.63;;;1.10;99.90;;;;;;5022246;28;20057;-72
2023/12/08 02:30:29;;;;;;;6.90;6.20;;;1.00;99.90;;;;;;5019331;28;20045;-72
2023/12/08 02:33:08;;;;;;;7.13;5.10;;;1.10;99.90;;;;;;5009400;28;20046;-73
2023/12/08 02:35:38;;;;;;;5.18;4.78;;;1.00;99.90;;;;;;5020498;28;20053;-72
2023/12/08 02:38:06;;;;;;;8.52;4.90;;;1.00;99.90;;;;;;5025555;28;20041;-73
2023/12/08 02:40:31;;;;;;;5.50;5.00;;;1.10;99.90;;;;;;5016003;28;20053;-72
2023/12/08 02:42:57;;;;;;;3.50;2.50;;;1.00;99.90;;;;;;5018855;28;20800;-72
2023/12/08 02:45:23;;;;;;;3.10;2.83;;;1.00;99.90;;;;;;5008592;28;20050;-72
2023/12/08 02:47:48;;;;;;;5.25;2.65;;;1.00;99.90;;;;;;5021567;28;20048;-72
2023/12/08 02:50:14;;;;;;;9.85;4.72;;;1.00;99.90;;;;;;5008408;28;20049;-72
2023/12/08 02:52:39;;;;;;;4.03;2.85;;;1.00;99.90;;;;;;5041519;28;20072;-72
2023/12/08 02:55:05;;;;;;;8.45;5.47;;;1.00;99.90;;;;;;5018213;28;20050;-72
2023/12/08 02:57:31;;;;;;;8.45;5.70;;;1.00;99.90;;;;;;5015901;28;20045;-72
2023/12/08 02:59:57;;;;;;;9.63;5.32;;;1.00;99.90;;;;;;5008998;28;20057;-72
2023/12/08 03:02:22;;;;;;;7.07;6.38;;;1.00;99.90;;;;;;5003373;28;20046;-72
2023/12/08 03:04:48;;;;;;;4.55;3.95;;;1.00;99.90;;;;;;5008624;28;20049;-72
2023/12/08 03:07:13;;;;;;;4.53;4.15;;;1.00;99.90;;;;;;5014536;28;20075;-72
2023/12/08 03:09:39;;;;;;;5.78;2.55;;;1.00;99.90;;;;;;5013057;28;20057;-72
2023/12/08 03:12:05;;;;;;;10.30;6.63;;;1.00;99.90;;;;;;5032498;28;20044;-72
2023/12/08 03:14:30;;;;;;;6.20;5.22;;;1.00;99.90;;;;;;5033521;28;20071;-73
2023/12/08 03:16:56;;;;;;;6.80;5.50;;;1.00;99.90;;;;;;5010054;28;20380;-73
2023/12/08 03:19:21;;;;;;;9.32;4.25;;;1.00;99.90;;;;;;5021983;28;20056;-72
2023/12/08 03:21:47;;;;;;;7.15;4.45;;;1.00;99.90;;;;;;5019853;28;20137;-72
2023/12/08 03:24:13;;;;;;;6.68;5.55;;;1.00;99.90;;;;;;5023599;28;20057;-72
2023/12/08 03:26:39;;;;;;;3.58;2.45;;;1.00;99.90;;;;;;5009590;28;20121;-72
2023/12/08 03:29:04;;;;;;;6.25;5.00;;;1.00;99.90;;;;;;5020227;28;20042;-72
2023/12/08 03:31:31;;;;;;;7.65;5.88;;;1.00;99.90;;;;;;5021861;28;20411;-72
2023/12/08 03:33:57;;;;;;;4.03;3.33;;;1.00;99.90;;;;;;5029258;28;20545;-72
2023/12/08 03:36:23;;;;;;;7.05;4.40;;;1.00;99.90;;;;;;5022292;28;20136;-72
2023/12/08 03:38:48;;;;;;;6.10;5.47;;;1.00;99.90;;;;;;5018919;28;20045;-72
2023/12/08 03:41:14;;;;;;;3.13;2.08;;;1.00;99.90;;;;;;5014570;28;20038;-72
2023/12/08 03:43:40;;;;;;;3.08;2.80;;;1.00;99.90;;;;;;5024859;28;20128;-72
2023/12/08 03:46:07;;;;;;;5.38;2.10;;;1.00;99.90;;;;;;5013296;28;20057;-72
2023/12/08 03:48:38;;;;;;;2.92;2.10;;;1.00;99.90;;;;;;5045143;28;20099;-72
2023/12/08 03:51:04;;;;;;;1.63;1.52;;;1.00;99.90;;;;;;5024463;28;20052;-72
2023/12/08 03:53:33;;;;;;;2.85;2.63;;;1.00;99.90;;;;;;5028972;28;20057;-72
2023/12/08 03:55:58;;;;;;;7.60;2.65;;;1.00;99.90;;;;;;5013393;28;20049;-72
2023/12/08 03:58:26;;;;;;;2.35;2.13;;;1.00;99.90;;;;;;5028070;28;20076;-72
2023/12/08 04:00:52;;;;;;;4.85;3.90;;;1.00;99.90;;;;;;5018685;28;20064;-72
2023/12/08 04:03:18;;;;;;;2.85;2.65;;;1.00;99.90;;;;;;5021276;28;20053;-71
2023/12/08 04:05:43;;;;;;;4.53;4.07;;;1.00;99.90;;;;;;5025778;28;20064;-72
2023/12/08 04:08:09;;;;;;;7.45;4.10;;;1.00;99.90;;;;;;5031104;28;20044;-72
2023/12/08 04:10:35;;;;;;;5.88;3.67;;;0.90;99.90;;;;;;5034732;28;20057;-72
2023/12/08 04:13:00;;;;;;;2.33;2.17;;;0.90;99.90;;;;;;5043710;28;20123;-71
2023/12/08 04:15:26;;;;;;;5.88;4.50;;;0.90;99.90;;;;;;5025746;28;20391;-72
2023/12/08 04:17:51;;;;;;;10.98;5.70;;;0.80;99.90;;;;;;5014272;28;20048;-72
2023/12/08 04:20:20;;;;;;;3.05;2.75;;;0.80;99.90;;;;;;5019654;28;20399;-72
2023/12/08 04:22:45;;;;;;;;;;;0.80;99.90;;;;;;5029471;28;20083;-71
2023/12/08 04:25:12;;;;;;;5.50;2.60;;;0.80;99.90;;;;;;5018036;28;19925;-72
2023/12/08 04:27:38;;;;;;;2.55;1.73;;;0.80;99.90;;;;;;5021855;28;20518;-72
2023/12/08 04:30:04;;;;;;;4.70;3.28;;;0.80;99.90;;;;;;5027828;28;20084;-72
2023/12/08 04:32:30;;;;;;;8.52;3.15;;;0.70;99.90;;;;;;5013369;28;20058;-72
2023/12/08 04:34:55;;;;;;;5.95;3.85;;;0.70;99.90;;;;;;5023879;28;20052;-73
2023/12/08 04:37:21;;;;;;;6.50;4.80;;;0.70;99.90;;;;;;5012531;28;20123;-72
2023/12/08 04:39:47;;;;;;;6.60;5.10;;;0.70;99.90;;;;;;5018856;28;20258;-72
2023/12/08 04:42:13;;;;;;;5.72;5.22;;;0.70;99.90;;;;;;5018318;28;20053;-71
2023/12/08 04:44:39;;;;;;;4.13;3.83;;;0.70;99.90;;;;;;5042929;28;20052;-72
2023/12/08 04:47:05;;;;;;;7.97;5.07;;;0.70;99.90;;;;;;5025617;28;20077;-72
2023/12/08 04:49:30;;;;;;;5.00;4.55;;;0.70;99.90;;;;;;5012242;28;20056;-72
2023/12/08 04:51:56;;;;;;;5.78;4.60;;;0.70;99.90;;;;;;5024821;28;20065;-72
2023/12/08 04:54:21;;;;;;;4.13;3.75;;;0.70;99.90;;;;;;5021847;28;20115;-72
2023/12/08 04:56:47;;;;;;;4.60;3.70;;;0.70;99.90;;;;;;5016846;28;20045;-72
2023/12/08 04:59:12;;;;;;;5.95;5.45;;;0.70;99.90;;;;;;5026930;28;20552;-71
2023/12/08 05:01:38;;;;;;;12.27;5.18;;;0.70;99.90;;;;;;5011413;28;20144;-71
2023/12/08 05:04:05;;;;;;;5.75;4.95;;;0.70;99.90;;;;;;5034171;28;20041;-72
2023/12/08 05:06:30;;;;;;;4.78;4.35;;;0.70;99.90;;;;;;5026677;28;20045;-72
2023/12/08 05:08:56;;;;;;;4.32;3.03;;;0.70;99.90;;;;;;5020175;28;20049;-72
2023/12/08 05:11:22;;;;;;;5.22;3.60;;;0.70;99.90;;;;;;5019512;28;20149;-72
2023/12/08 05:13:48;;;;;;;7.05;5.22;;;0.70;99.90;;;;;;5041214;28;20117;-72
2023/12/08 05:16:15;;;;;;;7.20;3.38;;;0.70;99.90;;;;;;5016982;28;20046;-72
2023/12/08 05:18:41;;;;;;;6.18;4.57;;;0.70;99.90;;;;;;5019895;28;20286;-72
2023/12/08 05:21:07;;;;;;;10.48;3.85;;;0.60;99.90;;;;;;5018335;28;20072;-72
2023/12/08 05:23:33;;;;;;;3.03;2.83;;;0.70;99.90;;;;;;5026971;28;20138;-72
2023/12/08 05:25:59;;;;;;;10.25;3.45;;;0.70;99.90;;;;;;5026360;28;20518;-72
2023/12/08 05:28:25;;;;;;;7.53;5.00;;;0.70;99.90;;;;;;5023142;28;20086;-72
2023/12/08 05:30:53;;;;;;;6.32;4.78;;;0.60;99.90;;;;;;5023216;28;20056;-72
2023/12/08 05:33:18;;;;;;;3.72;3.28;;;0.70;99.90;;;;;;5011175;28;20441;-72
2023/12/08 05:35:44;;;;;;;4.57;3.92;;;0.70;99.90;;;;;;5018832;28;20045;-72
2023/12/08 05:38:10;;;;;;;6.85;3.42;;;0.70;99.90;;;;;;5018119;28;20137;-72
2023/12/08 05:40:36;;;;;;;5.00;4.32;;;0.70;99.90;;;;;;5037590;28;20134;-73
2023/12/08 05:43:02;;;;;;;11.43;5.85;;;0.70;99.90;;;;;;5028389;28;20057;-72
2023/12/08 05:45:28;;;;;;;8.82;4.78;;;0.70;99.90;;;;;;5011907;28;20394;-72
2023/12/08 05:47:54;;;;;;;10.52;4.57;;;0.70;99.90;;;;;;5020228;28;20057;-72
2023/12/08 05:50:19;;;;;;;7.32;5.53;;;0.70;99.90;;;;;;5014738;28;20063;-72
2023/12/08 05:52:45;;;;;;;6.07;5.57;;;0.70;99.90;;;;;;5027636;28;20037;-72
2023/12/08 05:55:11;;;;;;;5.20;4.07;;;0.70;99.90;;;;;;5014490;28;20068;-72
2023/12/08 05:57:36;;;;;;;4.80;4.43;;;0.70;99.90;;;;;;5022087;28;20053;-72
2023/12/08 06:00:05;;;;;;;14.52;4.82;;;0.70;99.90;;;;;;5014216;28;20048;-72
2023/12/08 06:02:31;;;;;;;7.00;4.85;;;0.70;99.90;;;;;;5037238;28;20049;-72
2023/12/08 06:04:56;;;;;;;3.55;2.83;;;0.70;99.90;;;;;;5020613;28;20573;-72
2023/12/08 06:07:22;;;;;;;6.30;3.53;;;0.70;99.90;;;;;;4999972;28;20057;-72
2023/12/08 06:09:48;;;;;;;2.30;2.13;;;0.70;99.90;;;;;;5013600;28;20129;-72
2023/12/08 06:12:13;;;;;;;12.02;4.55;;;0.70;99.90;;;;;;5032445;28;20041;-72
2023/12/08 06:14:40;;;;;;;1.98;1.88;;;0.70;99.90;;;;;;5034536;28;20486;-72
2023/12/08 06:17:05;;;;;;;3.03;2.58;;;0.70;99.90;;;;;;5009584;28;20060;-73
2023/12/08 06:19:31;;;;;;;1.27;1.25;;;0.70;99.90;;;;;;5010059;28;20461;-72
2023/12/08 06:21:57;;;;;;;3.75;3.33;;;0.70;99.90;;;;;;5011754;28;20057;-72
2023/12/08 06:24:22;;;;;;;5.07;2.80;;;0.70;99.90;;;;;;5022363;28;20057;-72
2023/12/08 06:26:48;;;;;;;2.28;2.10;;;0.70;99.90;;;;;;5021899;28;20096;-72
2023/12/08 06:29:13;;;;;;;8.18;4.47;;;0.70;99.90;;;;;;5009495;28;20145;-72
2023/12/08 06:31:39;;;;;;;3.90;2.30;;;0.70;99.90;;;;;;5014261;28;20037;-72
2023/12/08 06:34:05;;;;;;;3.17;2.88;;;0.70;99.90;;;;;;5014994;28;20388;-72
2023/12/08 06:36:30;;;;;;;2.78;2.55;;;0.70;99.90;;;;;;5031337;28;20375;-72
2023/12/08 06:38:56;;;;;;;6.28;3.88;;;0.70;99.90;;;;;;5032701;28;20056;-72
2023/12/08 06:41:21;;;;;;;4.60;2.35;;;0.70;99.90;;;;;;5008502;28;20049;-72
2023/12/08 06:43:48;;;;;;;2.08;1.98;;;0.70;99.90;;;;;;5021300;28;20506;-72
2023/12/08 06:46:13;;;;;;;2.63;1.60;;;0.70;99.90;;;;;;5013602;28;20050;-72
2023/12/08 06:48:39;;;;;;;4.05;2.65;;;0.70;99.90;;;;;;5015393;28;20594;-72
2023/12/08 06:51:05;;;;;;;3.28;2.88;;;0.70;99.90;;;;;;5016320;28;20386;-72
2023/12/08 06:53:30;;;;;;;2.60;2.40;;;0.70;99.90;;;;;;5025326;28;20387;-72
2023/12/08 06:55:56;;;;;;;2.15;1.95;;;0.70;99.90;;;;;;4994510;28;20053;-72
2023/12/08 06:58:21;;;;;;;4.35;1.50;;;0.70;99.90;;;;;;5040922;28;20050;-73
2023/12/08 07:00:48;;;;;;;2.80;2.38;;;0.70;99.90;;;;;;5016444;28;20046;-72
2023/12/08 07:03:13;;;;;;;1.60;1.42;;;0.70;99.90;;;;;;5019257;28;20049;-73
2023/12/08 07:05:39;;;;;;;3.03;2.67;;;0.70;99.90;;;;;;5024063;28;20410;-72
2023/12/08 07:08:05;;;;;;;2.35;1.67;;;0.70;99.90;;;;;;5013497;28;20498;-72
2023/12/08 07:10:30;;;;;;;3.85;2.60;;;0.70;99.90;;;;;;5025828;28;20049;-72
2023/12/08 07:12:56;;;;;;;4.65;2.20;;;0.70;99.90;;;;;;5038980;28;20052;-72
2023/12/08 07:15:21;;;;;;;3.25;2.08;;;0.70;99.90;;;;;;5029070;28;20476;-72
2023/12/08 07:17:47;;;;;;;3.88;3.38;;;0.70;99.90;;;;;;5018686;28;20047;-72
2023/12/08 07:20:13;;;;;;;3.38;3.13;;;0.70;99.90;;;;;;5027751;28;20525;-72
2023/12/08 07:22:39;;;;;;;4.05;2.95;;;0.70;99.90;;;;;;5013644;28;20034;-72
2023/12/08 07:25:07;;;;;;;4.30;3.88;;;0.70;99.90;;;;;;5020302;28;20582;-72
2023/12/08 07:27:32;;;;;;;4.68;2.85;;;0.60;99.90;;;;;;5022291;28;20076;-73
2023/12/08 07:29:58;;;;;;;6.88;6.00;;;0.60;99.90;;;;;;5023387;28;20073;-72
2023/12/08 07:32:24;;;;;;;5.75;5.03;;;0.60;99.90;;;;;;5029760;28;20045;-72
2023/12/08 07:34:50;;;;;;;11.85;5.43;;;0.60;99.90;;;;;;5037913;28;20049;-72
2023/12/08 07:37:16;;;;;;;5.78;4.97;;;0.60;99.90;;;;;;5014393;28;20053;-72
2023/12/08 07:39:42;;;;;;;4.53;3.92;;;0.60;99.90;;;;;;5024890;28;20080;-72
2023/12/08 07:42:08;;;;;;;12.93;4.40;;;0.70;99.90;;;;;;5015079;28;20517;-72
2023/12/08 07:44:35;;;;;;;9.00;3.97;;;0.70;99.90;;;;;;5019856;28;20058;-72
2023/12/08 07:47:00;;;;;;;7.85;5.78;;;0.70;99.90;;;;;;5021290;28;20046;-72
2023/12/08 07:49:26;;;;;;;7.63;4.90;;;0.70;99.90;;;;;;5013694;28;20045;-72
2023/12/08 07:51:52;;;;;;;8.18;4.78;;;0.70;99.90;;;;;;5012018;28;20053;-72
2023/12/08 07:54:18;;;;;;;3.00;2.80;;;0.70;99.90;;;;;;5045013;28;20038;-72
2023/12/08 07:56:43;;;;;;;4.50;4.10;;;0.70;99.90;;;;;;5028332;28;20037;-72
2023/12/08 07:59:09;;;;;;;4.22;3.17;;;0.70;99.90;;;;;;5016433;28;20050;-72
2023/12/08 08:01:35;;;;;;;2.90;2.70;;;0.70;99.90;;;;;;5023412;28;20121;-72
2023/12/08 08:04:01;;;;;;;4.20;2.28;;;0.70;99.90;;;;;;5011637;28;20066;-72
2023/12/08 08:06:26;;;;;;;4.88;3.40;;;0.70;99.90;;;;;;5013052;28;20487;-72
2023/12/08 08:08:52;;;;;;;5.00;3.75;;;0.80;99.90;;;;;;5022135;28;20041;-72
2023/12/08 08:11:18;;;;;;;3.42;3.20;;;0.80;99.90;;;;;;5019575;28;20356;-73
2023/12/08 08:13:43;;;;;;;2.15;2.00;;;0.80;99.90;;;;;;5039903;28;20041;-72
2023/12/08 08:16:09;;;;;;;4.07;3.05;;;0.80;99.90;;;;;;5027791;28;20053;-72
2023/12/08 08:18:34;;;;;;;5.00;2.38;;;0.80;99.90;;;;;;4996047;28;20068;-72
2023/12/08 08:21:00;;;;;;;3.65;2.63;;;0.80;99.90;;;;;;5018465;28;20052;-72
2023/12/08 08:23:26;;;;;;;2.50;1.63;;;0.80;99.90;;;;;;5019821;28;20470;-72
2023/12/08 08:25:52;;;;;;;5.20;1.67;;;0.80;99.90;;;;;;5014369;28;20538;-72
2023/12/08 08:28:18;;;;;;;3.95;3.45;;;0.80;99.90;;;;;;5029866;28;20049;-72
2023/12/08 08:30:44;;;;;;;2.92;2.63;;;0.80;99.90;;;;;;5032755;28;20569;-72
2023/12/08 08:33:10;;;;;;;5.82;2.20;;;0.80;99.90;;;;;;5010819;28;20144;-72
2023/12/08 08:35:37;;;;;;;2.53;2.33;;;0.80;99.90;;;;;;5022127;28;20117;-72
2023/12/08 08:38:02;;;;;;;3.13;1.65;;;0.80;99.90;;;;;;5017724;28;20058;-72
2023/12/08 08:40:29;;;;;;;3.42;2.60;;;0.80;99.90;;;;;;5014894;28;20038;-72
2023/12/08 08:42:54;;;;;;;3.08;2.67;;;0.80;99.90;;;;;;5023745;28;20168;-72
2023/12/08 08:45:21;;;;;;;2.90;2.63;;;0.80;99.90;;;;;;5011824;28;20136;-72
2023/12/08 08:47:47;;;;;;;2.75;2.35;;;0.80;99.90;;;;;;5018663;28;20085;-74
2023/12/08 08:50:12;;;;;;;2.40;2.28;;;0.80;99.90;;;;;;5028013;28;20085;-73
2023/12/08 08:52:38;;;;;;;1.73;1.63;;;0.80;99.90;;;;;;5015611;28;20103;-73
2023/12/08 08:55:05;;;;;;;5.03;2.47;;;0.80;99.90;;;;;;5027424;28;20094;-73
2023/12/08 08:57:31;;;;;;;4.28;3.92;;;0.80;99.90;;;;;;5012174;28;20081;-73
2023/12/08 08:59:57;;;;;;;3.28;2.97;;;0.90;99.90;;;;;;5010388;28;20092;-73
2023/12/08 09:02:22;;;;;;;3.05;2.85;;;0.90;99.90;;;;;;5021724;28;20058;-72
2023/12/08 09:04:48;;;;;;;5.13;2.58;;;0.90;99.90;;;;;;5010967;28;20050;-72
2023/12/08 09:07:14;;;;;;;1.15;1.13;;;0.90;99.90;;;;;;5017638;28;20045;-73
2023/12/08 09:09:39;;;;;;;2.40;2.28;;;0.90;99.90;;;;;;5019057;28;20660;-72
2023/12/08 09:12:06;;;;;;;2.50;2.22;;;0.90;99.90;;;;;;5034581;28;20099;-72
2023/12/08 09:14:33;;;;;;;3.42;2.47;;;0.90;99.90;;;;;;5034690;28;20831;-73
2023/12/08 09:17:02;;;;;;;2.85;2.63;;;0.90;99.90;;;;;;5011823;28;20056;-72
2023/12/08 09:19:28;;;;;;;1.65;1.55;;;0.90;99.90;;;;;;5023161;28;20159;-72
2023/12/08 09:21:54;;;;;;;2.20;2.00;;;0.90;99.90;;;;;;5021930;28;20148;-72
2023/12/08 09:24:19;;;;;;;5.55;2.78;;;0.90;99.90;;;;;;5029025;28;20123;-72
2023/12/08 09:26:45;;;;;;;2.17;2.05;;;0.90;99.90;;;;;;5041057;28;20099;-72
2023/12/08 09:29:11;;;;;;;1.63;1.58;;;0.90;99.90;;;;;;5020120;28;20568;-72
2023/12/08 09:31:36;;;;;;;2.30;1.75;;;0.90;99.90;;;;;;5019598;28;20042;-72
2023/12/08 09:34:02;;;;;;;1.98;1.88;;;0.90;99.90;;;;;;5016932;28;20522;-72
2023/12/08 09:36:27;;;;;;;1.60;1.50;;;0.90;99.90;;;;;;5013003;28;20088;-72
2023/12/08 09:38:53;;;;;;;1.67;1.52;;;1.00;99.90;;;;;;5022864;28;20076;-72
2023/12/08 09:41:19;;;;;;;1.95;1.85;;;1.00;99.90;;;;;;5010292;28;20041;-72
2023/12/08 09:43:47;;;;;;;2.15;1.20;;;1.00;99.90;;;;;;5018568;28;20408;-72
2023/12/08 09:46:14;;;;;;;5.78;4.13;;;1.00;99.90;;;;;;5035475;28;20106;-72
2023/12/08 09:48:43;;;;;;;9.13;3.45;;;1.00;99.90;;;;;;5028013;28;20455;-72
2023/12/08 09:51:09;;;;;;;6.50;3.22;;;1.00;99.90;;;;;;5022776;28;20478;-72
2023/12/08 09:53:37;;;;;;;3.45;1.98;;;1.00;99.90;;;;;;5026408;28;20049;-72
2023/12/08 09:56:03;;;;;;;3.47;3.20;;;1.00;99.90;;;;;;5009870;28;20409;-72
2023/12/08 09:58:30;;;;;;;5.13;4.03;;;1.10;99.90;;;;;;5025644;28;20046;-72
2023/12/08 10:00:58;;;;;;;4.53;3.38;;;1.00;99.90;;;;;;4999640;28;20045;-72
2023/12/08 10:03:24;;;;;;;4.10;2.17;;;1.10;99.90;;;;;;5019331;28;20124;-72
2023/12/08 10:05:52;;;;;;;3.72;2.08;;;1.10;99.90;;;;;;5022469;28;20072;-72
2023/12/08 10:08:19;;;;;;;5.95;3.05;;;1.10;99.90;;;;;;5025957;28;20049;-72
2023/12/08 10:10:45;;;;;;;2.30;2.10;;;1.10;99.90;;;;;;5014191;28;20046;-72
2023/12/08 10:13:12;;;;;;;4.03;2.42;;;1.10;99.90;;;;;;5038974;28;20049;-72
2023/12/08 10:15:41;;;;;;;10.20;4.20;;;1.10;99.90;;;;;;5020969;28;20099;-72
2023/12/08 10:18:07;;;;;;;2.20;2.10;;;1.10;99.90;;;;;;5014250;28;20045;-72
2023/12/08 10:20:33;;;;;;;4.68;3.55;;;1.10;99.90;;;;;;5019483;28;20311;-72
2023/12/08 10:22:58;;;;;;;5.00;2.42;;;1.10;99.90;;;;;;5039898;28;20172;-72
2023/12/08 10:25:26;;;;;;;2.65;2.03;;;1.10;99.90;;;;;;5016177;28;20135;-73
2023/12/08 10:27:54;;;;;;;2.78;2.35;;;1.10;99.90;;;;;;5018664;28;20540;-72
2023/12/08 10:30:21;;;;;;;4.38;3.85;;;1.20;99.90;;;;;;5020900;28;20045;-73
2023/12/08 10:32:47;;;;;;;7.70;2.08;;;1.10;99.90;;;;;;5009546;28;20050;-72
2023/12/08 10:35:13;;;;;;;2.15;1.95;;;1.10;99.90;;;;;;5008912;28;20277;-72
2023/12/08 10:37:40;;;;;;;3.50;2.47;;;1.10;99.90;;;;;;5018466;28;20450;-72
2023/12/08 10:40:17;;;;;;;1.83;1.33;;;1.20;99.90;;;;;;5016698;28;20104;-72
2023/12/08 10:42:45;;;;;;;3.88;3.53;;;1.20;99.90;;;;;;5042197;28;20057;-72
2023/12/08 10:45:11;;;;;;;8.27;2.95;;;1.20;99.90;;;;;;5009331;28;20257;-72
2023/12/08 10:47:42;;;;;;;1.88;1.70;;;1.20;99.90;;;;;;5017719;28;20054;-72
2023/12/08 10:50:09;;;;;;;3.35;2.58;;;1.20;99.90;;;;;;5014176;28;20474;-72
2023/12/08 10:52:39;;;;;;;2.08;1.88;;;1.20;99.90;;;;;;5024591;28;20065;-71
2023/12/08 10:55:06;;;;;;;2.60;1.92;;;1.30;99.90;;;;;;5013599;28;20045;-72
2023/12/08 10:57:32;;;;;;;2.90;1.85;;;1.30;99.90;;;;;;5021960;28;20277;-72
2023/12/08 11:00:12;;;;;;;1.75;1.63;;;1.30;99.90;;;;;;5006237;28;20084;-71
2023/12/08 11:02:40;;;;;;;1.42;1.42;;;1.30;99.90;;;;;;5013343;28;20345;-72
2023/12/08 11:05:10;;;;;;;2.15;2.05;;;1.30;99.90;;;;;;5017170;28;20046;-72
2023/12/08 11:07:42;;;;;;;1.63;1.52;;;1.30;99.90;;;;;;5017596;28;20060;-71
2023/12/08 11:10:11;;;;;;;2.35;2.25;;;1.30;99.90;;;;;;5008888;28;20050;-71
2023/12/08 11:12:43;;;;;;;4.22;1.60;;;1.30;99.90;;;;;;5038835;28;20045;-71
2023/12/08 11:15:15;;;;;;;1.02;1.02;;;1.30;99.90;;;;;;5029019;28;20049;-71
2023/12/08 11:17:52;;;;;;;1.65;1.58;;;1.30;99.90;;;;;;5025199;28;20057;-71
2023/12/08 11:20:18;;;;;;;8.07;2.38;;;1.30;99.90;;;;;;5029596;28;20037;-71
2023/12/08 11:22:46;;;;;;;3.35;2.63;;;1.30;99.90;;;;;;5011899;28;20067;-71
2023/12/08 11:25:19;;;;;;;2.67;2.47;;;1.30;99.90;;;;;;5016984;28;20058;-71
2023/12/08 11:28:11;;;;;;;1.60;1.50;;;1.30;99.90;;;;;;5019188;28;20041;-71
2023/12/08 11:30:51;;;;;;;4.07;2.72;;;1.40;99.90;;;;;;4992328;28;20057;-71
2023/12/08 11:33:40;;;;;;;3.88;2.45;;;1.30;99.90;;;;;;5009308;28;20049;-71
2023/12/08 11:36:09;;;;;;;6.88;1.98;;;1.30;99.90;;;;;;5014770;28;20136;-71
2023/12/08 11:38:37;;;;;;;2.65;1.50;;;1.30;99.90;;;;;;5032953;28;20053;-71
2023/12/08 11:41:15;;;;;;;1.97;1.87;;;1.30;99.90;;;;;;5027301;28;20145;-71
2023/12/08 11:43:42;;;;;;;2.03;1.70;;;1.30;99.90;;;;;;5020349;28;20049;-71
2023/12/08 11:46:08;;;;;;;3.30;2.42;;;1.40;99.90;;;;;;5015994;28;20129;-72
2023/12/08 11:48:35;;;;;;;1.98;1.67;;;1.40;99.90;;;;;;5013376;28;20124;-71
2023/12/08 11:51:01;;;;;;;2.60;2.42;;;1.40;99.90;;;;;;5018480;28;20096;-71
2023/12/08 11:53:27;;;;;;;6.55;3.10;;;1.30;99.90;;;;;;5028629;28;20887;-71
2023/12/08 11:55:54;;;;;;;1.50;1.40;;;1.30;99.90;;;;;;5012051;28;20470;-71
2023/12/08 11:58:33;;;;;;;3.30;3.03;;;1.40;99.90;;;;;;5028074;28;20130;-71
2023/12/08 12:01:02;;;;;;;3.38;2.95;;;1.30;99.90;;;;;;5029658;28;20057;-71
2023/12/08 12:03:28;;;;;;;2.13;2.03;;;1.40;99.90;;;;;;5016446;28;20068;-71
2023/12/08 12:05:53;;;;;;;1.50;1.40;;;1.30;99.90;;;;;;5010698;28;20499;-71
2023/12/08 12:08:24;;;;;;;1.35;1.17;;;1.40;99.90;;;;;;5024746;28;20037;-71
2023/12/08 12:10:52;;;;;;;1.70;1.33;;;1.40;99.90;;;;;;5014082;28;20607;-71
2023/12/08 12:13:19;;;;;;;;;;;1.40;99.90;;;;;;5042442;28;20053;-71
2023/12/08 12:15:45;;;;;;;2.05;1.52;;;1.40;99.90;;;;;;5020757;28;19983;-71
2023/12/08 12:18:12;;;;;;;1.67;1.58;;;1.40;99.90;;;;;;5007970;28;20046;-71
2023/12/08 12:20:38;;;;;;;6.82;2.60;;;1.40;99.90;;;;;;5018829;28;20351;-71
2023/12/08 12:23:04;;;;;;;2.22;2.03;;;1.40;99.90;;;;;;5016093;28;20038;-71
2023/12/08 12:25:30;;;;;;;15.77;3.50;;;1.40;99.90;;;;;;5016183;28;20165;-71
2023/12/08 12:27:57;;;;;;;1.67;1.58;;;1.40;99.90;;;;;;5023200;28;20140;-71
2023/12/08 12:30:23;;;;;;;2.78;2.33;;;1.40;99.90;;;;;;5021172;28;20068;-71
2023/12/08 12:32:49;;;;;;;3.13;2.53;;;1.40;99.90;;;;;;5012558;28;20045;-71
2023/12/08 12:35:15;;;;;;;3.13;2.85;;;1.40;99.90;;;;;;5045159;28;20048;-71
2023/12/08 12:37:42;;;;;;;3.67;2.97;;;1.40;99.90;;;;;;5027664;28;20053;-71
2023/12/08 12:40:09;;;;;;;2.72;2.53;;;1.40;99.90;;;;;;5021373;28;20073;-71
2023/12/08 12:42:54;;;;;;;3.05;2.88;;;1.40;99.90;;;;;;5020322;28;20575;-71
2023/12/08 12:45:27;;;;;;;4.40;3.22;;;1.40;99.90;;;;;;5011796;28;20054;-71
2023/12/08 12:48:05;;;;;;;4.78;2.78;;;1.40;99.90;;;;;;5022335;28;20052;-71
2023/12/08 12:50:31;;;;;;;3.23;2.00;;;1.50;99.90;;;;;;5014983;28;20045;-71
2023/12/08 12:53:04;;;;;;;1.65;1.55;;;1.40;99.90;;;;;;5026907;28;20061;-71
2023/12/08 12:55:30;;;;;;;1.58;1.38;;;1.50;99.90;;;;;;5023774;28;20088;-71